createdAt,value
2023-11-18T00:01:58.961Z,37.06
2023-11-18T00:04:26.053Z,37.14
2023-11-18T00:06:53.574Z,36.96
2023-11-18T00:09:21.040Z,37.02
2023-11-18T00:11:47.420Z,37.03
2023-11-18T00:14:14.377Z,37.09
2023-11-18T00:16:41.096Z,37.02
2023-11-18T00:19:07.508Z,36.98
2023-11-18T00:21:33.954Z,37.02
2023-11-18T00:24:00.342Z,37.29
2023-11-18T00:26:27.064Z,37.11
2023-11-18T00:28:53.960Z,37.20
2023-11-18T00:31:20.401Z,37.22
2023-11-18T00:33:46.896Z,37.20
2023-11-18T00:36:13.279Z,37.16
2023-11-18T00:38:39.654Z,36.89
2023-11-18T00:41:07.507Z,37.21
2023-11-18T00:43:33.946Z,37.17
2023-11-18T00:46:00.458Z,36.96
2023-11-18T00:48:26.870Z,36.86
2023-11-18T00:50:53.234Z,37.00
2023-11-18T00:53:20.029Z,36.96
2023-11-18T00:55:46.597Z,37.20
2023-11-18T00:58:13.020Z,37.28
2023-11-18T01:00:39.391Z,37.32
2023-11-18T01:03:05.897Z,37.29
2023-11-18T01:05:32.480Z,37.38
2023-11-18T01:07:58.973Z,37.14
2023-11-18T01:10:25.403Z,37.48
2023-11-18T01:12:51.781Z,37.27
2023-11-18T01:15:18.165Z,37.34
2023-11-18T01:17:45.366Z,37.35
2023-11-18T01:20:12.688Z,37.34
2023-11-18T01:22:39.225Z,37.40
2023-11-18T01:25:06.825Z,37.42
2023-11-18T01:27:35.088Z,37.33
2023-11-18T01:30:01.701Z,37.49
2023-11-18T01:32:30.918Z,37.36
2023-11-18T01:34:58.048Z,37.57
2023-11-18T01:37:27.824Z,37.57
2023-11-18T01:39:54.230Z,37.50
2023-11-18T01:42:20.655Z,37.26
2023-11-18T01:44:47.095Z,37.58
2023-11-18T01:47:13.797Z,37.54
2023-11-18T01:49:41.558Z,37.46
2023-11-18T01:52:08.816Z,37.50
2023-11-18T01:54:35.809Z,37.59
2023-11-18T01:57:06.874Z,37.47
2023-11-18T01:59:34.579Z,37.59
2023-11-18T02:02:01.099Z,37.70
2023-11-18T02:04:27.835Z,37.77
2023-11-18T02:06:54.771Z,37.72
2023-11-18T02:09:30.522Z,37.56
2023-11-18T02:11:59.957Z,37.58
2023-11-18T02:14:27.367Z,37.79
2023-11-18T02:16:57.181Z,37.65
2023-11-18T02:19:25.417Z,37.83
2023-11-18T02:21:52.172Z,37.86
2023-11-18T02:24:32.146Z,37.68
2023-11-18T02:26:58.927Z,37.88
2023-11-18T02:29:26.479Z,37.72
2023-11-18T02:31:53.453Z,37.89
2023-11-18T02:34:21.981Z,37.90
2023-11-18T02:36:49.104Z,37.91
2023-11-18T02:39:27.233Z,37.90
2023-11-18T02:41:53.831Z,37.72
2023-11-18T02:44:21.631Z,37.86
2023-11-18T02:46:49.750Z,37.64
2023-11-18T02:49:16.594Z,37.73
2023-11-18T02:51:44.268Z,37.75
2023-11-18T02:54:11.827Z,37.71
2023-11-18T02:56:38.454Z,37.85
2023-11-18T02:59:07.526Z,38.03
2023-11-18T03:01:35.060Z,38.03
2023-11-18T03:04:01.733Z,37.96
2023-11-18T03:06:28.185Z,38.02
2023-11-18T03:08:55.107Z,37.92
2023-11-18T03:11:21.454Z,38.08
2023-11-18T03:13:47.828Z,37.98
2023-11-18T03:16:14.249Z,37.97
2023-11-18T03:18:41.027Z,37.99
2023-11-18T03:21:13.597Z,38.10
2023-11-18T03:23:41.796Z,38.00
2023-11-18T03:26:08.937Z,38.04
2023-11-18T03:28:37.390Z,37.89
2023-11-18T03:31:05.600Z,38.00
2023-11-18T03:33:32.027Z,37.96
2023-11-18T03:35:58.426Z,37.93
2023-11-18T03:38:24.906Z,38.14
2023-11-18T03:40:51.299Z,38.06
2023-11-18T03:43:17.989Z,38.05
2023-11-18T03:45:44.476Z,38.14
2023-11-18T03:48:15.359Z,38.15
2023-11-18T03:50:41.917Z,38.16
2023-11-18T03:53:08.302Z,38.02
2023-11-18T03:55:35.092Z,38.09
2023-11-18T03:58:01.470Z,38.28
2023-11-18T04:00:31.052Z,37.86
2023-11-18T04:03:00.558Z,38.17
2023-11-18T04:05:26.982Z,38.25
2023-11-18T04:07:53.386Z,38.21
2023-11-18T04:10:20.810Z,38.24
2023-11-18T04:12:49.288Z,38.23
2023-11-18T04:15:16.477Z,38.20
2023-11-18T04:17:45.252Z,38.31
2023-11-18T04:20:12.537Z,38.27
2023-11-18T04:22:42.095Z,38.37
2023-11-18T04:25:12.094Z,38.21
2023-11-18T04:27:38.730Z,38.21
2023-11-18T04:30:05.682Z,38.28
2023-11-18T04:32:35.112Z,38.19
2023-11-18T04:35:07.897Z,38.09
2023-11-18T04:37:35.329Z,37.98
2023-11-18T04:40:05.007Z,38.10
2023-11-18T04:42:31.425Z,38.12
2023-11-18T04:44:58.743Z,38.15
2023-11-18T04:47:26.522Z,38.29
2023-11-18T04:49:53.256Z,38.35
2023-11-18T04:52:19.933Z,38.15
2023-11-18T04:54:49.022Z,38.12
2023-11-18T04:57:15.491Z,38.21
2023-11-18T04:59:42.894Z,38.33
2023-11-18T05:02:09.373Z,38.27
2023-11-18T05:04:37.009Z,38.29
2023-11-18T05:07:03.770Z,38.26
2023-11-18T05:09:30.144Z,38.22
2023-11-18T05:11:56.515Z,38.17
2023-11-18T05:14:23.033Z,38.34
2023-11-18T05:16:49.420Z,38.36
2023-11-18T05:19:16.406Z,38.15
2023-11-18T05:21:42.776Z,38.20
2023-11-18T05:24:09.762Z,38.16
2023-11-18T05:26:36.114Z,38.17
2023-11-18T05:29:03.071Z,38.30
2023-11-18T05:31:30.067Z,38.18
2023-11-18T05:33:56.696Z,38.16
2023-11-18T05:36:28.625Z,38.34
2023-11-18T05:38:55.274Z,38.27
2023-11-18T05:41:28.686Z,38.33
2023-11-18T05:43:57.944Z,38.22
2023-11-18T05:46:31.473Z,38.35
2023-11-18T05:48:58.308Z,37.80
2023-11-18T05:51:25.278Z,38.29
2023-11-18T05:53:52.853Z,38.00
2023-11-18T05:56:19.286Z,38.24
2023-11-18T05:58:45.771Z,38.16
2023-11-18T06:01:12.908Z,38.16
2023-11-18T06:03:40.355Z,38.29
2023-11-18T06:06:07.901Z,38.23
2023-11-18T06:08:40.071Z,38.33
2023-11-18T06:11:14.146Z,38.19
2023-11-18T06:13:44.741Z,38.36
2023-11-18T06:16:15.250Z,38.14
2023-11-18T06:18:43.578Z,38.34
2023-11-18T06:21:11.287Z,38.18
2023-11-18T06:23:37.658Z,38.14
2023-11-18T06:26:05.540Z,38.26
2023-11-18T06:28:33.597Z,38.33
2023-11-18T06:31:00.020Z,38.25
2023-11-18T06:33:29.010Z,38.26
2023-11-18T06:35:56.779Z,38.23
2023-11-18T06:38:23.631Z,38.21
2023-11-18T06:40:53.744Z,38.39
2023-11-18T06:43:20.652Z,38.31
2023-11-18T06:45:48.010Z,38.09
2023-11-18T06:48:15.815Z,37.83
2023-11-18T06:50:45.352Z,37.73
2023-11-18T06:53:12.578Z,37.89
2023-11-18T06:55:39.308Z,37.92
2023-11-18T06:58:05.731Z,37.92
2023-11-18T07:00:32.290Z,38.00
2023-11-18T07:02:58.975Z,38.05
2023-11-18T07:05:25.521Z,38.07
2023-11-18T07:07:52.181Z,38.00
2023-11-18T07:10:21.833Z,37.93
2023-11-18T07:12:51.494Z,38.00
2023-11-18T07:15:17.925Z,37.74
2023-11-18T07:17:44.855Z,37.96
2023-11-18T07:20:14.546Z,37.53
2023-11-18T07:22:41.651Z,37.13
2023-11-18T07:25:10.184Z,37.06
2023-11-18T07:27:37.128Z,37.06
2023-11-18T07:30:07.400Z,37.31
2023-11-18T07:32:34.780Z,37.30
2023-11-18T07:35:01.345Z,37.12
2023-11-18T07:37:27.986Z,37.00
2023-11-18T07:39:56.182Z,37.00
2023-11-18T07:42:22.608Z,37.00
2023-11-18T07:44:49.195Z,37.00
2023-11-18T07:47:17.243Z,37.51
2023-11-18T07:49:43.705Z,37.97
2023-11-18T07:52:10.530Z,37.89
2023-11-18T07:54:37.047Z,37.56
2023-11-18T07:57:05.441Z,37.25
2023-11-18T07:59:33.308Z,37.21
2023-11-18T08:02:03.256Z,37.11
2023-11-18T08:04:31.897Z,37.33
2023-11-18T08:06:58.386Z,36.87
2023-11-18T08:09:26.713Z,36.99
2023-11-18T08:11:56.481Z,36.89
2023-11-18T08:14:23.465Z,36.64
2023-11-18T08:16:51.032Z,36.85
2023-11-18T08:19:17.645Z,36.97
2023-11-18T08:21:44.013Z,36.92
2023-11-18T08:24:10.399Z,36.55
2023-11-18T08:26:36.928Z,36.70
2023-11-18T08:29:03.396Z,36.74
2023-11-18T08:31:29.837Z,36.77
2023-11-18T08:33:56.327Z,37.03
2023-11-18T08:36:27.597Z,36.73
2023-11-18T08:38:55.391Z,36.96
2023-11-18T08:41:23.377Z,36.79
2023-11-18T08:43:50.445Z,37.06
2023-11-18T08:46:16.914Z,35.88
2023-11-18T08:48:45.795Z,36.52
2023-11-18T08:51:14.363Z,35.61
2023-11-18T08:53:43.757Z,35.91
2023-11-18T08:56:15.275Z,36.16
2023-11-18T08:58:42.552Z,36.31
2023-11-18T09:01:15.925Z,36.43
2023-11-18T09:03:50.125Z,36.32
2023-11-18T09:06:20.059Z,36.45
2023-11-18T09:08:46.975Z,36.14
2023-11-18T09:11:17.991Z,35.96
2023-11-18T09:13:45.904Z,36.26
2023-11-18T09:16:12.494Z,36.28
2023-11-18T09:18:42.986Z,36.21
2023-11-18T09:21:15.440Z,36.24
2023-11-18T09:23:42.557Z,36.11
2023-11-18T09:26:09.313Z,36.28
2023-11-18T09:28:38.715Z,36.08
2023-11-18T09:31:05.559Z,36.15
2023-11-18T09:33:35.944Z,36.23
2023-11-18T09:36:03.607Z,35.98
2023-11-18T09:38:30.411Z,36.18
2023-11-18T09:41:08.514Z,36.05
2023-11-18T09:43:43.503Z,36.17
2023-11-18T09:46:13.837Z,36.08
2023-11-18T09:48:43.966Z,36.23
2023-11-18T09:51:10.344Z,36.13
2023-11-18T09:53:41.439Z,36.11
2023-11-18T09:56:10.870Z,36.09
2023-11-18T09:58:42.354Z,36.21
2023-11-18T10:01:14.349Z,36.06
2023-11-18T10:03:43.212Z,36.09
2023-11-18T10:06:09.750Z,36.24
2023-11-18T10:08:39.044Z,36.19
2023-11-18T10:11:10.280Z,36.21
2023-11-18T10:13:41.758Z,36.04
2023-11-18T10:16:09.116Z,36.01
2023-11-18T10:18:38.264Z,36.29
2023-11-18T10:21:12.762Z,36.29
2023-11-18T10:23:39.199Z,36.26
2023-11-18T10:26:05.784Z,36.23
2023-11-18T10:28:38.834Z,36.35
2023-11-18T10:31:06.561Z,36.12
2023-11-18T10:33:33.313Z,36.15
2023-11-18T10:36:04.095Z,36.24
2023-11-18T10:38:37.823Z,36.16
2023-11-18T10:41:04.379Z,36.30
2023-11-18T10:43:30.925Z,36.26
2023-11-18T10:46:12.697Z,36.42
2023-11-18T10:48:42.111Z,36.22
2023-11-18T10:51:09.422Z,36.42
2023-11-18T10:53:38.284Z,36.41
2023-11-18T10:56:06.740Z,36.34
2023-11-18T10:58:36.537Z,36.48
2023-11-18T11:01:02.940Z,36.42
2023-11-18T11:03:34.388Z,36.31
2023-11-18T11:06:01.060Z,36.29
2023-11-18T11:08:35.933Z,36.19
2023-11-18T11:11:09.406Z,36.07
2023-11-18T11:13:38.837Z,36.27
2023-11-18T11:16:05.328Z,36.13
2023-11-18T11:18:35.606Z,36.24
2023-11-18T11:21:10.219Z,36.24
2023-11-18T11:23:44.914Z,36.32
2023-11-18T11:26:15.152Z,36.32
2023-11-18T11:28:44.811Z,36.06
2023-11-18T11:31:12.062Z,36.05
2023-11-18T11:33:43.896Z,36.23
2023-11-18T11:36:13.513Z,35.82
2023-11-18T11:38:40.692Z,35.85
2023-11-18T11:41:09.097Z,35.49
2023-11-18T11:43:35.936Z,35.24
2023-11-18T11:46:04.517Z,35.29
2023-11-18T11:48:37.106Z,35.17
2023-11-18T11:51:27.416Z,34.81
2023-11-18T11:53:59.421Z,34.74
2023-11-18T11:56:44.981Z,34.94
2023-11-18T11:59:14.365Z,34.99
2023-11-18T12:01:46.261Z,34.59
2023-11-18T12:04:21.968Z,34.72
2023-11-18T12:07:02.910Z,34.51
2023-11-18T12:09:39.183Z,34.40
2023-11-18T12:12:13.580Z,34.44
2023-11-18T12:15:06.740Z,34.67
2023-11-18T12:17:33.839Z,34.63
2023-11-18T12:20:01.229Z,34.70
2023-11-18T12:22:28.326Z,34.50
2023-11-18T12:24:58.674Z,34.27
2023-11-18T12:27:40.961Z,34.23
2023-11-18T12:30:16.357Z,34.44
2023-11-18T12:33:24.865Z,34.40
2023-11-18T12:35:51.550Z,34.06
2023-11-18T12:38:36.417Z,34.03
2023-11-18T12:41:12.465Z,34.09
2023-11-18T12:43:52.814Z,34.05
2023-11-18T12:46:38.340Z,34.87
2023-11-18T12:49:05.806Z,34.29
2023-11-18T12:51:32.892Z,34.47
2023-11-18T12:53:59.754Z,34.57
2023-11-18T12:56:26.179Z,34.68
2023-11-18T12:58:52.609Z,34.86
2023-11-18T13:01:20.436Z,34.79
2023-11-18T13:03:48.256Z,34.56
2023-11-18T13:06:15.200Z,34.67
2023-11-18T13:08:41.774Z,34.36
2023-11-18T13:11:13.413Z,34.55
2023-11-18T13:13:40.657Z,34.54
2023-11-18T13:16:09.924Z,34.48
2023-11-18T13:18:42.952Z,35.29
2023-11-18T13:21:12.106Z,35.65
2023-11-18T13:23:38.528Z,35.23
2023-11-18T13:26:06.701Z,35.29
2023-11-18T13:28:33.144Z,35.27
2023-11-18T13:30:59.493Z,35.59
2023-11-18T13:33:25.946Z,35.58
2023-11-18T13:35:52.340Z,35.48
2023-11-18T13:38:19.612Z,35.27
2023-11-18T13:40:47.751Z,35.15
2023-11-18T13:43:14.323Z,34.73
2023-11-18T13:45:41.499Z,35.22
2023-11-18T13:48:09.877Z,35.41
2023-11-18T13:50:39.514Z,35.59
2023-11-18T13:53:07.026Z,35.28
2023-11-18T13:55:33.963Z,35.22
2023-11-18T13:58:00.317Z,35.32
2023-11-18T14:00:31.219Z,35.56
2023-11-18T14:02:58.896Z,35.22
2023-11-18T14:05:25.591Z,35.20
2023-11-18T14:08:00.562Z,35.69
2023-11-18T14:10:27.134Z,35.55
2023-11-18T14:13:01.094Z,35.52
2023-11-18T14:15:27.622Z,35.49
2023-11-18T14:17:54.014Z,35.30
2023-11-18T14:20:23.381Z,35.21
2023-11-18T14:22:51.718Z,35.43
2023-11-18T14:25:19.179Z,35.50
2023-11-18T14:27:45.543Z,35.27
2023-11-18T14:30:12.438Z,35.56
2023-11-18T14:32:39.074Z,35.58
2023-11-18T14:35:10.672Z,35.57
2023-11-18T14:37:43.297Z,35.52
2023-11-18T14:40:14.685Z,35.57
2023-11-18T14:42:47.315Z,35.62
2023-11-18T14:45:13.937Z,35.54
2023-11-18T14:47:40.848Z,35.67
2023-11-18T14:50:16.329Z,35.82
2023-11-18T14:52:43.456Z,35.77
2023-11-18T14:55:13.239Z,35.78
2023-11-18T14:57:42.399Z,35.70
2023-11-18T15:00:10.447Z,35.72
2023-11-18T15:02:36.968Z,35.71
2023-11-18T15:05:07.472Z,35.68
2023-11-18T15:07:33.874Z,35.71
2023-11-18T15:10:00.824Z,35.79
2023-11-18T15:12:27.509Z,35.76
2023-11-18T15:14:53.894Z,35.88
2023-11-18T15:17:20.331Z,36.02
2023-11-18T15:19:46.745Z,36.13
2023-11-18T15:22:13.102Z,36.24
2023-11-18T15:24:39.536Z,36.17
2023-11-18T15:27:05.963Z,36.18
2023-11-18T15:29:39.454Z,36.20
2023-11-18T15:32:05.909Z,36.01
2023-11-18T15:34:32.906Z,35.98
2023-11-18T15:37:01.866Z,36.12
2023-11-18T15:39:28.724Z,36.17
2023-11-18T15:41:55.203Z,36.23
2023-11-18T15:44:21.806Z,36.44
2023-11-18T15:46:48.966Z,36.39
2023-11-18T15:49:15.442Z,36.46
2023-11-18T15:51:41.859Z,36.59
2023-11-18T15:54:08.224Z,36.22
2023-11-18T15:56:35.191Z,36.50
2023-11-18T15:59:01.641Z,36.47
2023-11-18T16:01:28.107Z,36.36
2023-11-18T16:03:54.590Z,36.04
2023-11-18T16:06:22.841Z,36.55
2023-11-18T16:08:50.585Z,36.52
2023-11-18T16:11:17.503Z,36.52
2023-11-18T16:13:44.155Z,36.20
2023-11-18T16:16:10.682Z,36.59
2023-11-18T16:18:37.127Z,36.57
2023-11-18T16:21:04.670Z,36.71
2023-11-18T16:23:36.268Z,36.37
2023-11-18T16:26:02.931Z,36.32
2023-11-18T16:31:00.828Z,35.91
2023-11-18T16:33:27.669Z,36.30
2023-11-18T16:35:54.260Z,36.59
2023-11-18T16:38:20.820Z,36.38
2023-11-18T16:40:47.257Z,35.97
2023-11-18T16:43:13.673Z,36.21
2023-11-18T16:45:41.230Z,36.00
2023-11-18T16:48:07.706Z,35.94
2023-11-18T16:50:36.013Z,36.36
2023-11-18T16:53:05.259Z,36.05
2023-11-18T16:55:35.104Z,36.17
2023-11-18T16:58:01.604Z,35.84
2023-11-18T17:00:28.573Z,36.22
2023-11-18T17:02:59.980Z,35.53
2023-11-18T17:05:30.845Z,36.05
2023-11-18T17:07:58.407Z,36.11
2023-11-18T17:10:24.902Z,35.80
2023-11-18T17:12:52.127Z,36.13
2023-11-18T17:15:18.639Z,36.05
2023-11-18T17:17:45.914Z,36.36
2023-11-18T17:20:12.684Z,36.34
2023-11-18T17:22:42.690Z,36.49
2023-11-18T17:25:14.017Z,36.96
2023-11-18T17:27:41.094Z,37.12
2023-11-18T17:30:13.303Z,37.08
2023-11-18T17:32:41.876Z,37.27
2023-11-18T17:35:14.461Z,37.28
2023-11-18T17:37:41.160Z,37.49
2023-11-18T17:40:12.001Z,37.45
2023-11-18T17:42:39.154Z,37.05
2023-11-18T17:45:06.651Z,36.88
2023-11-18T17:47:35.821Z,37.31
2023-11-18T17:50:03.617Z,37.14
2023-11-18T17:52:30.142Z,37.54
2023-11-18T17:54:57.347Z,37.70
2023-11-18T17:57:24.271Z,37.60
2023-11-18T17:59:53.847Z,37.86
2023-11-18T18:02:20.276Z,37.43
2023-11-18T18:04:47.998Z,37.64
2023-11-18T18:07:14.476Z,37.99
2023-11-18T18:09:40.848Z,37.62
2023-11-18T18:12:09.200Z,37.89
2023-11-18T18:14:35.685Z,37.83
2023-11-18T18:17:05.467Z,37.42
2023-11-18T18:19:31.939Z,37.88
2023-11-18T18:21:58.506Z,37.73
2023-11-18T18:24:24.870Z,37.47
2023-11-18T18:26:53.431Z,37.46
2023-11-18T18:29:20.627Z,37.68
2023-11-18T18:31:47.465Z,37.45
2023-11-18T18:34:13.858Z,37.31
2023-11-18T18:36:40.264Z,37.39
2023-11-18T18:39:07.763Z,37.16
2023-11-18T18:41:34.352Z,37.25
2023-11-18T18:44:01.228Z,37.25
2023-11-18T18:46:28.426Z,37.80
2023-11-18T18:48:55.192Z,37.59
2023-11-18T18:51:23.689Z,37.15
2023-11-18T18:53:50.103Z,37.17
2023-11-18T18:56:17.307Z,37.52
2023-11-18T18:58:44.131Z,38.18
2023-11-18T19:01:13.562Z,37.97
2023-11-18T19:03:40.067Z,38.10
2023-11-18T19:06:07.496Z,37.69
2023-11-18T19:08:33.971Z,37.83
2023-11-18T19:11:00.992Z,37.42
2023-11-18T19:13:27.499Z,37.50
2023-11-18T19:15:54.462Z,37.39
2023-11-18T19:18:20.892Z,37.71
2023-11-18T19:20:47.276Z,37.17
2023-11-18T19:23:13.810Z,37.56
2023-11-18T19:25:40.199Z,37.44
2023-11-18T19:28:10.045Z,37.50
2023-11-18T19:30:36.856Z,37.23
2023-11-18T19:33:03.323Z,37.47
2023-11-18T19:35:32.332Z,37.16
2023-11-18T19:38:00.937Z,37.36
2023-11-18T19:40:28.073Z,37.13
2023-11-18T19:42:54.678Z,37.08
2023-11-18T19:45:21.034Z,36.94
2023-11-18T19:47:47.416Z,36.88
2023-11-18T19:50:14.160Z,37.06
2023-11-18T19:52:41.071Z,36.58
2023-11-18T19:55:07.865Z,36.90
2023-11-18T19:57:36.567Z,36.78
2023-11-18T20:00:06.304Z,36.76
2023-11-18T20:02:32.793Z,36.71
2023-11-18T20:04:59.464Z,36.57
2023-11-18T20:07:25.863Z,36.80
2023-11-18T20:09:52.247Z,36.68
2023-11-18T20:12:19.344Z,36.69
2023-11-18T20:14:45.859Z,36.51
2023-11-18T20:17:12.355Z,36.77
2023-11-18T20:19:39.698Z,36.86
2023-11-18T20:22:06.611Z,36.58
2023-11-18T20:24:32.984Z,36.82
2023-11-18T20:26:59.340Z,36.53
2023-11-18T20:29:25.722Z,36.70
2023-11-18T20:31:52.183Z,36.75
2023-11-18T20:34:19.195Z,36.43
2023-11-18T20:36:45.780Z,36.49
2023-11-18T20:39:18.213Z,36.28
2023-11-18T20:41:45.549Z,36.18
2023-11-18T20:44:12.035Z,36.21
2023-11-18T20:46:39.283Z,36.25
2023-11-18T20:49:06.468Z,36.56
2023-11-18T20:51:32.841Z,36.66
2023-11-18T20:54:00.428Z,36.20
2023-11-18T20:56:26.949Z,36.23
2023-11-18T20:58:53.313Z,36.22
2023-11-18T21:01:19.817Z,36.76
2023-11-18T21:03:47.454Z,36.16
2023-11-18T21:06:21.220Z,36.38
2023-11-18T21:08:48.241Z,36.73
2023-11-18T21:11:14.664Z,36.10
2023-11-18T21:13:43.011Z,36.45
2023-11-18T21:16:10.419Z,36.24
2023-11-18T21:18:36.789Z,36.18
2023-11-18T21:21:03.713Z,35.84
2023-11-18T21:23:31.762Z,36.02
2023-11-18T21:25:58.482Z,36.49
2023-11-18T21:28:26.211Z,36.50
2023-11-18T21:30:53.023Z,36.49
2023-11-18T21:33:19.518Z,36.31
2023-11-18T21:35:45.952Z,36.40
2023-11-18T21:38:13.555Z,36.48
2023-11-18T21:40:40.100Z,36.55
2023-11-18T21:43:06.480Z,36.37
2023-11-18T21:45:32.897Z,36.41
2023-11-18T21:48:03.191Z,36.49
2023-11-18T21:50:30.734Z,36.40
2023-11-18T21:52:58.053Z,36.14
2023-11-18T21:55:24.869Z,36.03
2023-11-18T21:57:51.350Z,35.88
2023-11-18T22:00:18.155Z,36.03
2023-11-18T22:02:45.896Z,36.00
2023-11-18T22:05:14.194Z,36.18
2023-11-18T22:07:40.611Z,36.43
2023-11-18T22:10:07.201Z,36.25
2023-11-18T22:12:33.737Z,36.25
2023-11-18T22:15:00.148Z,36.28
2023-11-18T22:17:29.792Z,36.50
2023-11-18T22:19:56.172Z,36.41
2023-11-18T22:22:22.582Z,36.28
2023-11-18T22:24:48.991Z,36.27
2023-11-18T22:27:15.500Z,36.27
2023-11-18T22:29:42.255Z,36.07
2023-11-18T22:32:11.318Z,36.60
2023-11-18T22:34:39.311Z,36.33
2023-11-18T22:37:06.048Z,36.35
2023-11-18T22:39:36.188Z,36.30
2023-11-18T22:42:05.415Z,36.24
2023-11-18T22:44:37.071Z,36.39
2023-11-18T22:47:05.161Z,36.71
2023-11-18T22:49:34.936Z,36.27
2023-11-18T22:52:01.942Z,36.51
2023-11-18T22:54:28.308Z,36.77
2023-11-18T22:56:54.681Z,36.11
2023-11-18T22:59:21.163Z,36.46
2023-11-18T23:01:47.798Z,37.16
2023-11-18T23:04:14.541Z,36.53
2023-11-18T23:06:42.015Z,36.64
2023-11-18T23:09:13.548Z,36.58
2023-11-18T23:11:41.057Z,36.03
2023-11-18T23:14:07.947Z,36.22
2023-11-18T23:16:34.435Z,36.48
2023-11-18T23:19:00.948Z,36.41
2023-11-18T23:21:27.628Z,36.42
2023-11-18T23:23:54.153Z,36.49
2023-11-18T23:26:20.520Z,36.63
2023-11-18T23:28:46.866Z,36.59
2023-11-18T23:31:14.306Z,36.20
2023-11-18T23:33:40.692Z,36.46
2023-11-18T23:36:08.491Z,36.41
2023-11-18T23:38:35.071Z,36.38
2023-11-18T23:41:01.450Z,36.16
2023-11-18T23:43:30.413Z,36.69
2023-11-18T23:45:57.106Z,36.74
2023-11-18T23:48:23.941Z,36.25
2023-11-18T23:50:51.240Z,36.51
2023-11-18T23:53:17.935Z,36.35
2023-11-18T23:55:44.496Z,36.59
2023-11-18T23:58:11.774Z,36.50
